sensor_id;sensor_type;location;lat;lon;timestamp;pressure;altitude;pressure_sealevel;temperature;humidity
10718;BME280;13513;42.700;23.124;2022-10-24T00:00:04;93640.05;;;13.29;99.92
10718;BME280;13513;42.700;23.124;2022-10-24T00:02:34;93634.27;;;13.32;99.39
10718;BME280;13513;42.700;23.124;2022-10-24T00:05:04;93637.16;;;13.30;99.25
10718;BME280;13513;42.700;23.124;2022-10-24T00:07:35;93634.47;;;13.28;99.21
10718;BME280;13513;42.700;23.124;2022-10-24T00:10:07;93628.86;;;13.24;98.68
10718;BME280;13513;42.700;23.124;2022-10-24T00:12:38;93628.29;;;13.22;98.91
10718;BME280;13513;42.700;23.124;2022-10-24T00:15:09;93631.73;;;13.20;99.13
10718;BME280;13513;42.700;23.124;2022-10-24T00:17:40;93631.30;;;13.09;100.00
10718;BME280;13513;42.700;23.124;2022-10-24T00:20:11;93637.00;;;12.85;100.00
10718;BME280;13513;42.700;23.124;2022-10-24T00:22:42;93627.99;;;12.69;100.00
10718;BME280;13513;42.700;23.124;2022-10-24T00:25:12;93624.11;;;12.58;100.00
10718;BME280;13513;42.700;23.124;2022-10-24T00:27:42;93625.83;;;12.50;100.00
10718;BME280;13513;42.700;23.124;2022-10-24T00:30:13;93621.31;;;12.50;100.00
10718;BME280;13513;42.700;23.124;2022-10-24T00:32:44;93621.82;;;12.47;100.00
10718;BME280;13513;42.700;23.124;2022-10-24T00:35:15;93622.19;;;12.39;100.00
10718;BME280;13513;42.700;23.124;2022-10-24T00:37:45;93618.19;;;12.53;100.00
10718;BME280;13513;42.700;23.124;2022-10-24T00:40:17;93619.19;;;12.66;100.00
10718;BME280;13513;42.700;23.124;2022-10-24T00:42:50;93618.12;;;12.65;100.00
10718;BME280;13513;42.700;23.124;2022-10-24T00:45:41;93615.78;;;12.68;100.00
10718;BME280;13513;42.700;23.124;2022-10-24T00:48:34;93611.40;;;12.76;100.00
10718;BME280;13513;42.700;23.124;2022-10-24T00:51:09;93607.08;;;12.70;100.00
10718;BME280;13513;42.700;23.124;2022-10-24T00:53:37;93608.75;;;12.76;100.00
10718;BME280;13513;42.700;23.124;2022-10-24T00:56:07;93614.77;;;12.72;100.00
10718;BME280;13513;42.700;23.124;2022-10-24T00:58:39;93619.05;;;12.73;100.00
10718;BME280;13513;42.700;23.124;2022-10-24T01:01:11;93612.89;;;12.70;100.00
10718;BME280;13513;42.700;23.124;2022-10-24T01:03:42;93614.66;;;12.81;100.00
10718;BME280;13513;42.700;23.124;2022-10-24T01:06:26;93620.52;;;12.66;100.00
10718;BME280;13513;42.700;23.124;2022-10-24T01:09:08;93607.55;;;12.51;100.00
10718;BME280;13513;42.700;23.124;2022-10-24T01:11:50;93612.36;;;12.37;100.00
10718;BME280;13513;42.700;23.124;2022-10-24T01:15:02;93612.48;;;12.28;100.00
10718;BME280;13513;42.700;23.124;2022-10-24T01:17:16;93614.06;;;12.12;100.00
10718;BME280;13513;42.700;23.124;2022-10-24T01:20:10;93608.88;;;12.03;100.00
10718;BME280;13513;42.700;23.124;2022-10-24T01:28:17;93614.44;;;12.35;100.00
10718;BME280;13513;42.700;23.124;2022-10-24T01:30:56;93614.78;;;12.39;100.00
10718;BME280;13513;42.700;23.124;2022-10-24T01:33:37;93621.89;;;12.52;100.00
10718;BME280;13513;42.700;23.124;2022-10-24T01:36:17;93618.61;;;12.62;100.00
10718;BME280;13513;42.700;23.124;2022-10-24T01:38:56;93612.08;;;12.53;100.00
10718;BME280;13513;42.700;23.124;2022-10-24T01:41:27;93615.74;;;12.49;100.00
10718;BME280;13513;42.700;23.124;2022-10-24T01:44:11;93610.48;;;12.52;100.00
10718;BME280;13513;42.700;23.124;2022-10-24T01:46:45;93608.63;;;12.36;100.00
10718;BME280;13513;42.700;23.124;2022-10-24T01:49:18;93611.09;;;12.25;100.00
10718;BME280;13513;42.700;23.124;2022-10-24T01:51:50;93614.72;;;12.05;100.00
10718;BME280;13513;42.700;23.124;2022-10-24T01:54:21;93611.21;;;12.16;100.00
10718;BME280;13513;42.700;23.124;2022-10-24T01:56:52;93612.27;;;12.15;100.00
10718;BME280;13513;42.700;23.124;2022-10-24T02:04:48;93610.23;;;12.20;100.00
10718;BME280;13513;42.700;23.124;2022-10-24T02:07:20;93608.13;;;12.22;100.00
10718;BME280;13513;42.700;23.124;2022-10-24T02:09:53;93606.19;;;12.17;100.00
10718;BME280;13513;42.700;23.124;2022-10-24T02:12:24;93610.73;;;12.19;100.00
10718;BME280;13513;42.700;23.124;2022-10-24T02:15:00;93612.22;;;12.29;100.00
10718;BME280;13513;42.700;23.124;2022-10-24T02:17:30;93612.09;;;12.36;100.00
10718;BME280;13513;42.700;23.124;2022-10-24T02:20:01;93615.77;;;12.35;100.00
10718;BME280;13513;42.700;23.124;2022-10-24T02:22:46;93608.03;;;12.48;100.00
10718;BME280;13513;42.700;23.124;2022-10-24T02:25:29;93603.58;;;12.51;100.00
10718;BME280;13513;42.700;23.124;2022-10-24T02:28:08;93607.59;;;12.53;100.00
10718;BME280;13513;42.700;23.124;2022-10-24T02:30:38;93600.95;;;12.37;100.00
10718;BME280;13513;42.700;23.124;2022-10-24T02:33:09;93603.45;;;12.12;100.00
10718;BME280;13513;42.700;23.124;2022-10-24T02:35:41;93602.17;;;12.15;100.00
10718;BME280;13513;42.700;23.124;2022-10-24T02:38:21;93604.04;;;12.14;100.00
10718;BME280;13513;42.700;23.124;2022-10-24T02:40:49;93601.43;;;12.17;100.00
10718;BME280;13513;42.700;23.124;2022-10-24T02:43:21;93603.27;;;12.16;100.00
10718;BME280;13513;42.700;23.124;2022-10-24T02:45:55;93602.33;;;12.08;100.00
10718;BME280;13513;42.700;23.124;2022-10-24T02:48:28;93610.28;;;12.08;100.00
10718;BME280;13513;42.700;23.124;2022-10-24T02:50:59;93605.87;;;12.14;100.00
10718;BME280;13513;42.700;23.124;2022-10-24T02:53:30;93605.69;;;12.04;100.00
10718;BME280;13513;42.700;23.124;2022-10-24T02:56:00;93607.31;;;12.05;100.00
10718;BME280;13513;42.700;23.124;2022-10-24T02:58:31;93599.68;;;12.08;100.00
10718;BME280;13513;42.700;23.124;2022-10-24T03:01:01;93601.59;;;12.10;100.00
10718;BME280;13513;42.700;23.124;2022-10-24T03:03:32;93601.94;;;12.16;100.00
10718;BME280;13513;42.700;23.124;2022-10-24T03:06:03;93606.92;;;12.13;100.00
10718;BME280;13513;42.700;23.124;2022-10-24T03:08:33;93599.25;;;12.14;100.00
10718;BME280;13513;42.700;23.124;2022-10-24T03:11:05;93598.39;;;12.11;100.00
10718;BME280;13513;42.700;23.124;2022-10-24T03:13:36;93597.89;;;12.11;100.00
10718;BME280;13513;42.700;23.124;2022-10-24T03:16:06;93593.38;;;12.12;100.00
10718;BME280;13513;42.700;23.124;2022-10-24T03:18:37;93596.91;;;12.17;100.00
10718;BME280;13513;42.700;23.124;2022-10-24T03:21:08;93592.05;;;12.12;100.00
10718;BME280;13513;42.700;23.124;2022-10-24T03:23:39;93587.09;;;12.15;100.00
10718;BME280;13513;42.700;23.124;2022-10-24T03:26:09;93594.34;;;12.20;100.00
10718;BME280;13513;42.700;23.124;2022-10-24T03:28:42;93590.44;;;12.25;100.00
10718;BME280;13513;42.700;23.124;2022-10-24T03:31:12;93590.27;;;12.32;100.00
10718;BME280;13513;42.700;23.124;2022-10-24T03:33:42;93593.58;;;12.39;100.00
10718;BME280;13513;42.700;23.124;2022-10-24T03:36:13;93597.02;;;12.39;100.00
10718;BME280;13513;42.700;23.124;2022-10-24T03:38:43;93595.95;;;12.38;100.00
10718;BME280;13513;42.700;23.124;2022-10-24T03:41:15;93589.60;;;12.39;100.00
10718;BME280;13513;42.700;23.124;2022-10-24T03:43:46;93593.85;;;12.40;100.00
10718;BME280;13513;42.700;23.124;2022-10-24T03:46:17;93596.50;;;12.40;100.00
10718;BME280;13513;42.700;23.124;2022-10-24T03:48:47;93593.23;;;12.35;100.00
10718;BME280;13513;42.700;23.124;2022-10-24T03:51:17;93594.96;;;12.27;100.00
10718;BME280;13513;42.700;23.124;2022-10-24T03:53:48;93594.22;;;12.29;100.00
10718;BME280;13513;42.700;23.124;2022-10-24T03:56:19;93591.56;;;12.29;100.00
10718;BME280;13513;42.700;23.124;2022-10-24T03:58:49;93585.72;;;12.29;100.00
10718;BME280;13513;42.700;23.124;2022-10-24T04:01:19;93589.70;;;12.29;100.00
10718;BME280;13513;42.700;23.124;2022-10-24T04:03:50;93595.97;;;12.23;100.00
10718;BME280;13513;42.700;23.124;2022-10-24T04:06:20;93590.09;;;12.21;100.00
10718;BME280;13513;42.700;23.124;2022-10-24T04:08:50;93588.19;;;12.17;100.00
10718;BME280;13513;42.700;23.124;2022-10-24T04:11:21;93585.38;;;12.23;100.00
10718;BME280;13513;42.700;23.124;2022-10-24T04:13:52;93583.77;;;12.23;100.00
10718;BME280;13513;42.700;23.124;2022-10-24T04:16:23;93585.88;;;12.23;100.00
10718;BME280;13513;42.700;23.124;2022-10-24T04:18:54;93588.50;;;12.20;100.00
10718;BME280;13513;42.700;23.124;2022-10-24T04:21:25;93592.52;;;12.06;100.00
10718;BME280;13513;42.700;23.124;2022-10-24T04:23:56;93590.33;;;12.03;100.00
10718;BME280;13513;42.700;23.124;2022-10-24T04:26:27;93593.13;;;11.97;100.00
10718;BME280;13513;42.700;23.124;2022-10-24T04:28:57;93593.79;;;11.76;100.00
10718;BME280;13513;42.700;23.124;2022-10-24T04:31:28;93593.03;;;11.64;100.00
10718;BME280;13513;42.700;23.124;2022-10-24T04:33:58;93597.12;;;11.57;100.00
10718;BME280;13513;42.700;23.124;2022-10-24T04:36:29;93594.12;;;11.54;100.00
10718;BME280;13513;42.700;23.124;2022-10-24T04:39:01;93589.88;;;11.53;100.00
10718;BME280;13513;42.700;23.124;2022-10-24T04:41:31;93595.36;;;11.60;100.00
10718;BME280;13513;42.700;23.124;2022-10-24T04:44:02;93598.84;;;11.63;100.00
10718;BME280;13513;42.700;23.124;2022-10-24T04:46:31;93595.81;;;11.71;100.00
10718;BME280;13513;42.700;23.124;2022-10-24T04:49:01;93594.12;;;11.65;100.00
10718;BME280;13513;42.700;23.124;2022-10-24T04:51:33;93598.61;;;11.65;100.00
10718;BME280;13513;42.700;23.124;2022-10-24T04:54:04;93596.86;;;11.70;100.00
10718;BME280;13513;42.700;23.124;2022-10-24T04:56:36;93601.18;;;11.74;100.00
10718;BME280;13513;42.700;23.124;2022-10-24T04:59:09;93593.55;;;11.77;100.00
10718;BME280;13513;42.700;23.124;2022-10-24T05:01:40;93597.92;;;11.83;100.00
10718;BME280;13513;42.700;23.124;2022-10-24T05:04:11;93597.61;;;11.82;100.00
10718;BME280;13513;42.700;23.124;2022-10-24T05:06:41;93596.09;;;11.86;100.00
10718;BME280;13513;42.700;23.124;2022-10-24T05:09:13;93594.07;;;11.91;100.00
10718;BME280;13513;42.700;23.124;2022-10-24T05:11:43;93598.75;;;12.00;100.00
10718;BME280;13513;42.700;23.124;2022-10-24T05:14:14;93599.88;;;12.18;100.00
10718;BME280;13513;42.700;23.124;2022-10-24T05:16:45;93599.44;;;12.24;100.00
10718;BME280;13513;42.700;23.124;2022-10-24T05:19:16;93600.13;;;12.34;100.00
10718;BME280;13513;42.700;23.124;2022-10-24T05:21:47;93603.58;;;12.51;100.00
10718;BME280;13513;42.700;23.124;2022-10-24T05:24:18;93612.18;;;12.74;100.00
10718;BME280;13513;42.700;23.124;2022-10-24T05:26:49;93615.09;;;12.92;100.00
10718;BME280;13513;42.700;23.124;2022-10-24T05:29:20;93611.49;;;13.17;100.00
10718;BME280;13513;42.700;23.124;2022-10-24T05:31:52;93615.88;;;13.47;99.78
10718;BME280;13513;42.700;23.124;2022-10-24T05:34:23;93610.34;;;13.72;97.07
10718;BME280;13513;42.700;23.124;2022-10-24T05:36:56;93618.27;;;13.91;96.20
10718;BME280;13513;42.700;23.124;2022-10-24T05:39:27;93619.30;;;14.12;95.57
10718;BME280;13513;42.700;23.124;2022-10-24T05:41:58;93614.73;;;14.34;93.20
10718;BME280;13513;42.700;23.124;2022-10-24T05:44:36;93611.00;;;14.61;92.20
10718;BME280;13513;42.700;23.124;2022-10-24T05:47:07;93611.58;;;15.00;90.90
10718;BME280;13513;42.700;23.124;2022-10-24T05:49:40;93613.20;;;15.47;87.75
10718;BME280;13513;42.700;23.124;2022-10-24T05:52:10;93612.63;;;15.92;83.21
10718;BME280;13513;42.700;23.124;2022-10-24T05:54:41;93620.20;;;16.38;78.98
10718;BME280;13513;42.700;23.124;2022-10-24T05:57:12;93625.33;;;16.67;73.66
10718;BME280;13513;42.700;23.124;2022-10-24T05:59:42;93624.80;;;16.90;70.11
10718;BME280;13513;42.700;23.124;2022-10-24T06:02:18;93626.14;;;17.15;69.69
10718;BME280;13513;42.700;23.124;2022-10-24T06:04:49;93629.06;;;17.28;67.90
10718;BME280;13513;42.700;23.124;2022-10-24T06:07:20;93631.98;;;17.32;65.41
10718;BME280;13513;42.700;23.124;2022-10-24T06:09:49;93629.33;;;17.44;66.05
10718;BME280;13513;42.700;23.124;2022-10-24T06:12:20;93628.02;;;17.19;68.87
10718;BME280;13513;42.700;23.124;2022-10-24T06:14:55;93624.20;;;16.40;74.34
10718;BME280;13513;42.700;23.124;2022-10-24T06:17:26;93626.43;;;15.84;78.85
10718;BME280;13513;42.700;23.124;2022-10-24T06:19:57;93633.42;;;15.41;79.70
10718;BME280;13513;42.700;23.124;2022-10-24T06:22:27;93632.05;;;14.97;83.90
10718;BME280;13513;42.700;23.124;2022-10-24T06:24:59;93635.22;;;14.96;83.25
10718;BME280;13513;42.700;23.124;2022-10-24T06:27:30;93638.70;;;14.97;85.01
10718;BME280;13513;42.700;23.124;2022-10-24T06:29:59;93642.24;;;15.10;84.55
10718;BME280;13513;42.700;23.124;2022-10-24T06:32:30;93647.14;;;15.23;82.90
10718;BME280;13513;42.700;23.124;2022-10-24T06:35:00;93644.14;;;15.51;83.13
10718;BME280;13513;42.700;23.124;2022-10-24T06:37:31;93641.95;;;15.94;80.86
10718;BME280;13513;42.700;23.124;2022-10-24T06:40:01;93644.44;;;16.26;76.74
10718;BME280;13513;42.700;23.124;2022-10-24T06:42:32;93642.42;;;16.56;74.41
10718;BME280;13513;42.700;23.124;2022-10-24T06:45:04;93646.42;;;17.28;70.42
10718;BME280;13513;42.700;23.124;2022-10-24T06:47:35;93646.30;;;18.57;65.29
10718;BME280;13513;42.700;23.124;2022-10-24T06:50:06;93650.34;;;19.84;58.33
10718;BME280;13513;42.700;23.124;2022-10-24T06:52:37;93646.54;;;20.95;53.87
10718;BME280;13513;42.700;23.124;2022-10-24T06:55:08;93651.59;;;21.95;49.80
10718;BME280;13513;42.700;23.124;2022-10-24T06:57:39;93655.57;;;22.65;47.74
10718;BME280;13513;42.700;23.124;2022-10-24T07:00:11;93656.39;;;23.12;45.01
10718;BME280;13513;42.700;23.124;2022-10-24T07:02:42;93653.59;;;23.83;44.32
10718;BME280;13513;42.700;23.124;2022-10-24T07:05:13;93656.26;;;24.05;42.77
10718;BME280;13513;42.700;23.124;2022-10-24T07:07:43;93652.55;;;24.71;41.38
10718;BME280;13513;42.700;23.124;2022-10-24T07:10:14;93656.41;;;25.12;40.64
10718;BME280;13513;42.700;23.124;2022-10-24T07:12:45;93659.29;;;25.75;39.34
10718;BME280;13513;42.700;23.124;2022-10-24T07:15:16;93662.72;;;26.33;38.08
10718;BME280;13513;42.700;23.124;2022-10-24T07:17:47;93658.63;;;26.79;36.65
10718;BME280;13513;42.700;23.124;2022-10-24T07:20:18;93652.02;;;27.65;35.11
10718;BME280;13513;42.700;23.124;2022-10-24T07:22:49;93650.20;;;28.34;34.50
10718;BME280;13513;42.700;23.124;2022-10-24T07:25:19;93643.77;;;29.10;33.20
10718;BME280;13513;42.700;23.124;2022-10-24T07:27:50;93639.85;;;29.75;31.67
10718;BME280;13513;42.700;23.124;2022-10-24T07:30:20;93646.66;;;30.30;30.74
10718;BME280;13513;42.700;23.124;2022-10-24T07:32:51;93649.72;;;30.81;30.03
10718;BME280;13513;42.700;23.124;2022-10-24T07:35:22;93652.63;;;31.76;29.13
10718;BME280;13513;42.700;23.124;2022-10-24T07:37:53;93646.92;;;32.42;27.80
10718;BME280;13513;42.700;23.124;2022-10-24T07:40:24;93648.28;;;33.62;26.22
10718;BME280;13513;42.700;23.124;2022-10-24T07:42:55;93642.65;;;34.30;24.60
10718;BME280;13513;42.700;23.124;2022-10-24T07:45:26;93647.61;;;34.74;24.03
10718;BME280;13513;42.700;23.124;2022-10-24T07:47:57;93645.08;;;35.80;23.64
10718;BME280;13513;42.700;23.124;2022-10-24T07:50:28;93638.67;;;36.65;22.20
10718;BME280;13513;42.700;23.124;2022-10-24T07:52:58;93640.09;;;37.63;21.26
10718;BME280;13513;42.700;23.124;2022-10-24T07:55:29;93645.19;;;38.32;21.00
10718;BME280;13513;42.700;23.124;2022-10-24T07:58:00;93650.47;;;38.42;20.23
10718;BME280;13513;42.700;23.124;2022-10-24T08:00:30;93636.09;;;38.71;20.27
10718;BME280;13513;42.700;23.124;2022-10-24T08:03:02;93640.73;;;37.17;20.95
10718;BME280;13513;42.700;23.124;2022-10-24T08:05:32;93637.27;;;35.55;22.53
10718;BME280;13513;42.700;23.124;2022-10-24T08:08:03;93637.09;;;33.90;24.24
10718;BME280;13513;42.700;23.124;2022-10-24T08:10:34;93632.73;;;33.86;24.55
10718;BME280;13513;42.700;23.124;2022-10-24T08:13:04;93635.97;;;32.64;25.95
10718;BME280;13513;42.700;23.124;2022-10-24T08:15:37;93639.25;;;31.71;27.06
10718;BME280;13513;42.700;23.124;2022-10-24T08:18:09;93624.66;;;31.54;27.42
10718;BME280;13513;42.700;23.124;2022-10-24T08:20:40;93622.59;;;32.82;26.44
10718;BME280;13513;42.700;23.124;2022-10-24T08:23:11;93627.02;;;33.68;25.44
10718;BME280;13513;42.700;23.124;2022-10-24T08:25:41;93624.78;;;32.73;26.09
10718;BME280;13513;42.700;23.124;2022-10-24T08:28:12;93629.20;;;33.16;26.48
10718;BME280;13513;42.700;23.124;2022-10-24T08:30:43;93625.41;;;33.24;26.13
10718;BME280;13513;42.700;23.124;2022-10-24T08:33:14;93628.27;;;35.31;24.26
10718;BME280;13513;42.700;23.124;2022-10-24T08:35:45;93626.94;;;35.34;23.48
10718;BME280;13513;42.700;23.124;2022-10-24T08:38:16;93631.80;;;34.81;23.89
10718;BME280;13513;42.700;23.124;2022-10-24T08:40:47;93622.70;;;36.43;22.68
10718;BME280;13513;42.700;23.124;2022-10-24T08:43:19;93622.75;;;35.04;23.51
10718;BME280;13513;42.700;23.124;2022-10-24T08:46:42;93620.63;;;36.96;21.85
10718;BME280;13513;42.700;23.124;2022-10-24T08:48:52;93614.03;;;38.28;20.39
10718;BME280;13513;42.700;23.124;2022-10-24T08:51:29;93614.73;;;39.67;19.60
10718;BME280;13513;42.700;23.124;2022-10-24T08:53:58;93603.41;;;39.36;19.39
10718;BME280;13513;42.700;23.124;2022-10-24T08:56:31;93600.24;;;38.61;19.67
10718;BME280;13513;42.700;23.124;2022-10-24T08:59:04;93604.08;;;36.75;21.52
10718;BME280;13513;42.700;23.124;2022-10-24T09:04:11;93600.05;;;33.05;25.29
10718;BME280;13513;42.700;23.124;2022-10-24T09:06:42;93606.62;;;30.34;31.34
10718;BME280;13513;42.700;23.124;2022-10-24T09:09:22;93594.40;;;27.98;33.00
10718;BME280;13513;42.700;23.124;2022-10-24T09:14:31;93600.16;;;27.11;35.29
10718;BME280;13513;42.700;23.124;2022-10-24T09:17:21;93592.17;;;28.36;33.33
10718;BME280;13513;42.700;23.124;2022-10-24T09:20:12;93592.98;;;28.72;32.45
10718;BME280;13513;42.700;23.124;2022-10-24T09:22:37;93603.43;;;27.57;34.40
10718;BME280;13513;42.700;23.124;2022-10-24T09:25:11;93603.93;;;26.39;36.06
10718;BME280;13513;42.700;23.124;2022-10-24T09:27:40;93604.00;;;25.02;38.56
10718;BME280;13513;42.700;23.124;2022-10-24T09:30:20;93591.55;;;24.31;40.58
10718;BME280;13513;42.700;23.124;2022-10-24T09:32:50;93595.45;;;24.16;40.29
10718;BME280;13513;42.700;23.124;2022-10-24T09:35:26;93587.05;;;23.68;41.77
10718;BME280;13513;42.700;23.124;2022-10-24T09:37:58;93594.01;;;23.60;43.57
10718;BME280;13513;42.700;23.124;2022-10-24T09:40:31;93593.72;;;23.70;42.62
10718;BME280;13513;42.700;23.124;2022-10-24T09:43:17;93589.55;;;23.34;42.99
10718;BME280;13513;42.700;23.124;2022-10-24T09:46:06;93590.26;;;23.14;44.85
10718;BME280;13513;42.700;23.124;2022-10-24T09:48:50;93585.68;;;22.82;46.24
10718;BME280;13513;42.700;23.124;2022-10-24T09:51:36;93586.91;;;23.09;46.81
10718;BME280;13513;42.700;23.124;2022-10-24T09:54:25;93582.60;;;22.75;44.92
10718;BME280;13513;42.700;23.124;2022-10-24T09:57:10;93584.45;;;22.99;44.88
10718;BME280;13513;42.700;23.124;2022-10-24T10:02:35;93571.20;;;24.78;40.76
10718;BME280;13513;42.700;23.124;2022-10-24T10:05:17;93569.48;;;26.54;36.79
10718;BME280;13513;42.700;23.124;2022-10-24T10:07:49;93566.89;;;27.08;36.03
10718;BME280;13513;42.700;23.124;2022-10-24T10:10:28;93568.63;;;27.77;34.57
10718;BME280;13513;42.700;23.124;2022-10-24T10:13:06;93566.38;;;27.79;35.21
10718;BME280;13513;42.700;23.124;2022-10-24T10:15:52;93566.07;;;27.48;34.98
10718;BME280;13513;42.700;23.124;2022-10-24T10:21:11;93561.95;;;26.02;37.68
10718;BME280;13513;42.700;23.124;2022-10-24T10:23:48;93557.41;;;25.54;39.80
10718;BME280;13513;42.700;23.124;2022-10-24T10:26:29;93551.11;;;25.47;39.48
10718;BME280;13513;42.700;23.124;2022-10-24T10:31:45;93548.92;;;25.15;40.16
10718;BME280;13513;42.700;23.124;2022-10-24T10:34:28;93548.61;;;25.17;41.50
10718;BME280;13513;42.700;23.124;2022-10-24T10:42:21;93544.48;;;24.85;39.80
10718;BME280;13513;42.700;23.124;2022-10-24T10:50:35;93531.48;;;28.50;33.01
10718;BME280;13513;42.700;23.124;2022-10-24T10:56:05;93528.98;;;31.07;30.73
10718;BME280;13513;42.700;23.124;2022-10-24T10:58:52;93522.96;;;30.48;30.29
10718;BME280;13513;42.700;23.124;2022-10-24T11:01:50;93517.29;;;31.35;28.98
10718;BME280;13513;42.700;23.124;2022-10-24T11:04:22;93522.55;;;33.64;26.59
10718;BME280;13513;42.700;23.124;2022-10-24T11:07:04;93525.05;;;34.56;24.90
10718;BME280;13513;42.700;23.124;2022-10-24T11:09:49;93515.78;;;35.87;23.61
10718;BME280;13513;42.700;23.124;2022-10-24T11:12:29;93520.45;;;33.83;25.09
10718;BME280;13513;42.700;23.124;2022-10-24T11:15:19;93516.21;;;32.71;26.24
10718;BME280;13513;42.700;23.124;2022-10-24T11:17:53;93512.70;;;32.35;26.80
10718;BME280;13513;42.700;23.124;2022-10-24T11:20:25;93504.20;;;32.53;26.44
10718;BME280;13513;42.700;23.124;2022-10-24T11:23:03;93503.45;;;33.74;25.16
10718;BME280;13513;42.700;23.124;2022-10-24T11:25:43;93499.52;;;33.09;26.52
10718;BME280;13513;42.700;23.124;2022-10-24T11:30:57;93492.59;;;32.14;26.49
10718;BME280;13513;42.700;23.124;2022-10-24T11:33:28;93489.97;;;32.96;26.33
10718;BME280;13513;42.700;23.124;2022-10-24T11:36:07;93475.23;;;32.65;26.54
10718;BME280;13513;42.700;23.124;2022-10-24T11:38:42;93481.39;;;32.71;26.96
10718;BME280;13513;42.700;23.124;2022-10-24T11:41:23;93482.80;;;34.04;25.24
10718;BME280;13513;42.700;23.124;2022-10-24T11:43:53;93479.22;;;32.97;26.32
10718;BME280;13513;42.700;23.124;2022-10-24T11:46:27;93477.85;;;32.97;26.25
10718;BME280;13513;42.700;23.124;2022-10-24T11:49:19;93472.19;;;33.62;25.81
10718;BME280;13513;42.700;23.124;2022-10-24T11:51:54;93470.77;;;32.92;25.79
10718;BME280;13513;42.700;23.124;2022-10-24T11:54:31;93468.67;;;32.43;26.47
10718;BME280;13513;42.700;23.124;2022-10-24T11:57:11;93464.30;;;32.39;27.15
10718;BME280;13513;42.700;23.124;2022-10-24T11:59:39;93466.31;;;31.74;28.23
10718;BME280;13513;42.700;23.124;2022-10-24T12:02:31;93463.81;;;29.21;31.62
10718;BME280;13513;42.700;23.124;2022-10-24T12:16:08;93466.75;;;26.26;35.78
10718;BME280;13513;42.700;23.124;2022-10-24T12:18:55;93461.59;;;25.98;37.23
10718;BME280;13513;42.700;23.124;2022-10-24T12:21:24;93456.62;;;25.71;36.52
10718;BME280;13513;42.700;23.124;2022-10-24T12:23:57;93455.63;;;25.38;37.57
10718;BME280;13513;42.700;23.124;2022-10-24T12:26:31;93453.41;;;25.40;37.11
10718;BME280;13513;42.700;23.124;2022-10-24T12:29:06;93447.70;;;25.16;38.64
10718;BME280;13513;42.700;23.124;2022-10-24T12:31:38;93444.56;;;25.06;38.36
10718;BME280;13513;42.700;23.124;2022-10-24T12:37:29;93438.55;;;25.15;38.32
10718;BME280;13513;42.700;23.124;2022-10-24T12:39:48;93437.59;;;25.19;39.66
10718;BME280;13513;42.700;23.124;2022-10-24T12:47:42;93437.38;;;25.10;39.07
10718;BME280;13513;42.700;23.124;2022-10-24T12:53:02;93429.75;;;24.55;39.61
10718;BME280;13513;42.700;23.124;2022-10-24T12:58:35;93432.63;;;24.41;40.34
10718;BME280;13513;42.700;23.124;2022-10-24T13:01:32;93436.19;;;24.48;40.44
10718;BME280;13513;42.700;23.124;2022-10-24T13:06:57;93435.61;;;24.82;39.47
10718;BME280;13513;42.700;23.124;2022-10-24T13:09:51;93433.27;;;24.72;39.81
10718;BME280;13513;42.700;23.124;2022-10-24T13:15:17;93425.28;;;24.84;39.33
10718;BME280;13513;42.700;23.124;2022-10-24T13:18:06;93426.67;;;24.99;38.69
10718;BME280;13513;42.700;23.124;2022-10-24T13:20:38;93424.28;;;24.97;38.58
10718;BME280;13513;42.700;23.124;2022-10-24T13:23:17;93422.53;;;25.24;38.27
10718;BME280;13513;42.700;23.124;2022-10-24T13:25:48;93422.95;;;25.81;37.88
10718;BME280;13513;42.700;23.124;2022-10-24T13:33:40;93422.63;;;26.32;36.39
10718;BME280;13513;42.700;23.124;2022-10-24T13:36:13;93418.36;;;26.37;36.43
10718;BME280;13513;42.700;23.124;2022-10-24T13:39:00;93420.47;;;26.31;36.38
10718;BME280;13513;42.700;23.124;2022-10-24T13:41:35;93417.97;;;26.26;36.32
10718;BME280;13513;42.700;23.124;2022-10-24T13:44:13;93423.53;;;25.86;37.62
10718;BME280;13513;42.700;23.124;2022-10-24T13:47:00;93421.67;;;25.49;38.28
10718;BME280;13513;42.700;23.124;2022-10-24T13:49:38;93421.89;;;25.27;37.90
10718;BME280;13513;42.700;23.124;2022-10-24T13:52:32;93425.20;;;24.78;39.02
10718;BME280;13513;42.700;23.124;2022-10-24T13:58:00;93415.29;;;24.51;39.23
10718;BME280;13513;42.700;23.124;2022-10-24T14:00:32;93414.25;;;24.49;39.55
10718;BME280;13513;42.700;23.124;2022-10-24T14:03:13;93414.52;;;24.67;39.63
10718;BME280;13513;42.700;23.124;2022-10-24T14:05:48;93410.33;;;24.78;39.62
10718;BME280;13513;42.700;23.124;2022-10-24T14:11:04;93407.55;;;24.55;40.88
10718;BME280;13513;42.700;23.124;2022-10-24T14:13:46;93409.34;;;24.34;41.45
10718;BME280;13513;42.700;23.124;2022-10-24T14:16:22;93405.29;;;24.43;41.04
10718;BME280;13513;42.700;23.124;2022-10-24T14:18:48;93409.02;;;24.70;41.01
10718;BME280;13513;42.700;23.124;2022-10-24T14:21:21;93413.62;;;24.69;40.85
10718;BME280;13513;42.700;23.124;2022-10-24T14:23:58;93411.31;;;24.74;40.48
10718;BME280;13513;42.700;23.124;2022-10-24T14:26:29;93409.23;;;24.79;40.33
10718;BME280;13513;42.700;23.124;2022-10-24T14:29:00;93407.16;;;24.85;40.44
10718;BME280;13513;42.700;23.124;2022-10-24T14:31:32;93405.36;;;24.97;40.64
10718;BME280;13513;42.700;23.124;2022-10-24T14:34:04;93407.73;;;24.59;42.15
10718;BME280;13513;42.700;23.124;2022-10-24T14:36:36;93401.07;;;23.97;43.35
10718;BME280;13513;42.700;23.124;2022-10-24T14:39:11;93403.91;;;23.92;43.31
10718;BME280;13513;42.700;23.124;2022-10-24T14:41:41;93402.25;;;23.65;44.15